Данни от 05.03.2024 г. 15:58:57

Температура вътрешна: 20.7 °C
Температура външна: 14.8 °C
Атмосферно налягане: 991.6 hPa
Атмосферно налягане на морско равнище: 1009.3 hPa
Влажност: 57.8 %



История от последните 24 часа

Дата и часTin [°C]P [hPa]Psl [hPa]H [%]Tout [°C]
   05.03.2024 г. 15:30:56      20.7      991.4      1009.1      57.8      16.4   
   05.03.2024 г. 15:00:57      20.7      991.2      1008.9      57.6      17.9   
   05.03.2024 г. 14:30:56      20.7      991.2      1008.8      57.4      18.7   
   05.03.2024 г. 14:00:57      20.7      991.0      1008.7      57.9      17.5   
   05.03.2024 г. 13:30:56      20.7      991.2      1008.9      58.3      16.3   
   05.03.2024 г. 13:00:57      20.7      991.2      1008.9      58.6      15.1   
   05.03.2024 г. 12:30:56      20.7      991.6      1009.3      58.7      13.9   
   05.03.2024 г. 12:00:57      20.7      991.6      1009.3      58.8      14.5   
   05.03.2024 г. 11:30:56      20.7      991.5      1009.2      58.8      14.5   
   05.03.2024 г. 11:00:57      20.7      991.5      1009.2      58.8      13.8   
   05.03.2024 г. 10:30:56      20.8      991.6      1009.3      59.1      13.3   
   05.03.2024 г. 10:00:57      20.8      991.5      1009.2      59.1      12.0   
   05.03.2024 г. 09:30:56      20.8      991.5      1009.2      59.3      11.6   
   05.03.2024 г. 09:00:57      20.8      991.3      1009.0      59.1      10.3   
   05.03.2024 г. 08:30:56      20.8      991.2      1008.9      59.2      9.1   
   05.03.2024 г. 08:00:56      20.8      991.1      1008.7      59.0      7.5   
   05.03.2024 г. 07:30:56      20.8      990.8      1008.5      59.4      7.3   
   05.03.2024 г. 07:00:56      20.8      990.7      1008.4      59.8      6.6   
   05.03.2024 г. 06:30:56      20.8      990.4      1008.1      61.8      6.5   
   05.03.2024 г. 06:00:56      21.2      990.4      1008.1      62.7      8.5   
   05.03.2024 г. 05:30:56      21.2      990.5      1008.2      62.4      7.8   
   05.03.2024 г. 05:00:56      21.2      990.6      1008.2      62.2      9.5   
   05.03.2024 г. 04:30:57      21.2      990.6      1008.3      62.4      10.0   
   05.03.2024 г. 04:00:56      21.3      990.6      1008.3      62.8      10.4   
   05.03.2024 г. 03:30:57      21.3      990.8      1008.4      62.2      10.4   
   05.03.2024 г. 03:00:56      21.3      990.8      1008.4      62.0      9.9   
   05.03.2024 г. 02:30:57      21.3      991.0      1008.7      61.7      9.9   
   05.03.2024 г. 02:00:56      21.3      991.2      1008.9      61.8      9.5   
   05.03.2024 г. 01:30:57      21.3      991.4      1009.1      61.6      11.4   
   05.03.2024 г. 01:00:56      21.3      991.4      1009.1      61.4      11.8   
   05.03.2024 г. 00:30:57      21.4      991.5      1009.2      61.3      12.9   
   05.03.2024 г. 00:00:56      21.4      991.6      1009.3      60.9      13.3   
   04.03.2024 г. 23:30:57      21.4      991.8      1009.5      60.3      13.3   
   04.03.2024 г. 23:00:56      21.4      992.1      1009.8      60.7      14.1   
   04.03.2024 г. 22:30:57      21.5      992.3      1010.0      60.3      14.5   
   04.03.2024 г. 22:00:56      21.4      992.5      1010.2      60.3      14.0   
   04.03.2024 г. 21:30:57      21.5      992.5      1010.3      60.0      13.6   
   04.03.2024 г. 21:00:56      21.5      992.7      1010.4      60.5      13.6   
   04.03.2024 г. 20:30:57      21.4      992.6      1010.3      60.5      14.0   
   04.03.2024 г. 20:00:56      21.4      992.5      1010.2      60.4      14.5   
   04.03.2024 г. 19:30:57      21.4      992.4      1010.2      60.2      14.3   
   04.03.2024 г. 19:00:56      21.2      992.5      1010.2      60.6      14.9   
   04.03.2024 г. 18:30:57      21.3      992.3      1010.0      61.3      17.0   
   04.03.2024 г. 18:00:56      21.3      992.3      1010.0      60.8      20.4   
   04.03.2024 г. 17:30:57      21.4      992.3      1010.0      60.3      21.9   
   04.03.2024 г. 17:00:56      21.4      992.3      1010.0      60.5      23.0   
   04.03.2024 г. 16:30:57      21.5      992.4      1010.1      60.1      23.8   
   04.03.2024 г. 16:00:56      21.6      992.7      1010.4      60.1      23.9   

BaroSL graphic

TEMPE graphic